createdAt,value
2022-09-21T00:01:06.856Z,102418.31
2022-09-21T00:03:34.730Z,102414.84
2022-09-21T00:06:05.938Z,102418.28
2022-09-21T00:08:34.302Z,102424.31
2022-09-21T00:11:03.552Z,102431.19
2022-09-21T00:13:33.186Z,102433.69
2022-09-21T00:16:05.700Z,102422.47
2022-09-21T00:18:33.582Z,102422.53
2022-09-21T00:21:01.366Z,102413.81
2022-09-21T00:23:29.448Z,102418.09
2022-09-21T00:26:06.382Z,102416.31
2022-09-21T00:28:34.494Z,102418.84
2022-09-21T00:31:04.973Z,102416.13
2022-09-21T00:33:33.134Z,102425.53
2022-09-21T00:36:04.793Z,102427.19
2022-09-21T00:38:33.209Z,102428.84
2022-09-21T00:41:01.064Z,102427.84
2022-09-21T00:43:28.905Z,102433.94
2022-09-21T00:46:02.911Z,102426.91
2022-09-21T00:48:32.609Z,102428.50
2022-09-21T00:51:04.652Z,102430.22
2022-09-21T00:53:33.186Z,102425.81
2022-09-21T00:56:03.963Z,102430.94
2022-09-21T00:58:33.961Z,102436.13
2022-09-21T01:01:02.319Z,102428.41
2022-09-21T01:03:33.473Z,102437.91
2022-09-21T01:06:01.273Z,102433.47
2022-09-21T01:08:30.404Z,102427.44
2022-09-21T01:11:25.543Z,102427.44
2022-09-21T01:14:15.217Z,102435.19
2022-09-21T01:16:50.328Z,102439.47
2022-09-21T01:19:40.778Z,102435.13
2022-09-21T01:22:20.077Z,102436.81
2022-09-21T01:24:58.680Z,102428.09
2022-09-21T01:27:54.734Z,102433.22
2022-09-21T01:30:27.070Z,102429.75
2022-09-21T01:32:59.406Z,102436.53
2022-09-21T01:35:31.429Z,102431.31
2022-09-21T01:38:03.662Z,102438.13
2022-09-21T01:40:35.850Z,102436.41
2022-09-21T01:43:07.498Z,102434.63
2022-09-21T01:45:41.323Z,102437.97
2022-09-21T01:48:09.522Z,102440.47
2022-09-21T01:50:41.456Z,102440.44
2022-09-21T01:53:14.685Z,102437.81
2022-09-21T01:55:46.831Z,102433.50
2022-09-21T01:58:19.857Z,102432.59
2022-09-21T02:00:53.502Z,102435.22
2022-09-21T02:03:27.914Z,102441.28
2022-09-21T02:05:57.595Z,102439.47
2022-09-21T02:08:26.861Z,102437.72
2022-09-21T02:10:55.304Z,102438.53
2022-09-21T02:13:27.669Z,102442.81
2022-09-21T02:16:05.347Z,102444.47
2022-09-21T02:18:49.552Z,102438.41
2022-09-21T02:21:26.802Z,102441.03
2022-09-21T02:24:04.241Z,102435.81
2022-09-21T02:26:36.820Z,102448.75
2022-09-21T02:29:17.884Z,102447.00
2022-09-21T02:31:53.173Z,102445.25
2022-09-21T02:34:28.711Z,102446.97
2022-09-21T02:37:03.736Z,102438.41
2022-09-21T02:39:39.734Z,102447.94
2022-09-21T02:42:11.539Z,102446.19
2022-09-21T02:44:43.735Z,102447.03
2022-09-21T02:47:18.491Z,102449.69
2022-09-21T02:49:51.400Z,102458.41
2022-09-21T02:52:21.436Z,102461.00
2022-09-21T02:54:53.083Z,102458.44
2022-09-21T02:57:24.498Z,102460.16
2022-09-21T02:59:53.458Z,102453.28
2022-09-21T03:02:22.619Z,102455.97
2022-09-21T03:04:50.866Z,102464.66
2022-09-21T03:07:18.786Z,102464.66
2022-09-21T03:09:46.620Z,102460.28
2022-09-21T03:12:14.597Z,102465.44
2022-09-21T03:14:42.879Z,102461.16
2022-09-21T03:17:10.668Z,102462.91
2022-09-21T03:19:39.947Z,102464.72
2022-09-21T03:22:07.737Z,102462.13
2022-09-21T03:24:47.447Z,102468.13
2022-09-21T03:27:16.623Z,102465.59
2022-09-21T03:29:44.587Z,102466.47
2022-09-21T03:32:12.955Z,102461.38
2022-09-21T03:34:44.853Z,102454.47
2022-09-21T03:37:12.653Z,102455.38
2022-09-21T03:39:40.468Z,102471.88
2022-09-21T03:42:09.992Z,102471.81
2022-09-21T03:44:38.407Z,102468.34
2022-09-21T03:47:06.709Z,102465.72
2022-09-21T03:49:34.913Z,102464.00
2022-09-21T03:52:04.334Z,102470.13
2022-09-21T03:54:32.114Z,102475.53
2022-09-21T03:56:59.899Z,102494.81
2022-09-21T03:59:27.706Z,102484.66
2022-09-21T04:01:55.515Z,102494.03
2022-09-21T04:04:23.394Z,102484.50
2022-09-21T04:06:51.608Z,102489.72
2022-09-21T04:09:23.589Z,102494.03
2022-09-21T04:11:52.354Z,102493.13
2022-09-21T04:14:20.183Z,102478.41
2022-09-21T04:16:47.976Z,102488.78
2022-09-21T04:19:16.679Z,102486.22
2022-09-21T04:21:44.546Z,102487.97
2022-09-21T04:24:12.440Z,102488.75
2022-09-21T04:26:41.992Z,102497.31
2022-09-21T04:29:11.057Z,102482.59
2022-09-21T04:31:38.874Z,102481.72
2022-09-21T04:34:06.789Z,102479.91
2022-09-21T04:36:36.833Z,102486.06
2022-09-21T04:39:06.057Z,102481.81
2022-09-21T04:41:33.911Z,102485.25
2022-09-21T04:44:03.571Z,102484.44
2022-09-21T04:46:31.616Z,102480.06
2022-09-21T04:48:59.506Z,102485.25
2022-09-21T04:51:27.394Z,102487.84
2022-09-21T04:53:57.923Z,102486.19
2022-09-21T04:56:27.966Z,102486.25
2022-09-21T04:58:57.696Z,102488.91
2022-09-21T05:01:26.918Z,102488.91
2022-09-21T05:03:54.975Z,102491.50
2022-09-21T05:06:22.793Z,102488.97
2022-09-21T05:09:08.374Z,102491.66
2022-09-21T05:11:36.287Z,102483.09
2022-09-21T05:14:04.129Z,102487.47
2022-09-21T05:16:33.338Z,102495.34
2022-09-21T05:19:01.158Z,102492.00
2022-09-21T05:21:29.478Z,102485.97
2022-09-21T05:23:57.460Z,102497.16
2022-09-21T05:26:25.890Z,102492.84
2022-09-21T05:28:54.417Z,102489.34
2022-09-21T05:31:32.902Z,102491.97
2022-09-21T05:34:07.556Z,102499.75
2022-09-21T05:36:46.563Z,102502.38
2022-09-21T05:39:15.032Z,102498.00
2022-09-21T05:41:43.559Z,102504.88
2022-09-21T05:44:14.835Z,102498.78
2022-09-21T05:46:52.661Z,102503.03
2022-09-21T05:49:27.363Z,102507.34
2022-09-21T05:52:03.642Z,102503.84
2022-09-21T05:54:46.396Z,102502.94
2022-09-21T05:57:21.982Z,102502.91
2022-09-21T06:00:02.699Z,102509.78
2022-09-21T06:03:05.547Z,102506.28
2022-09-21T06:05:34.743Z,102508.88
2022-09-21T06:08:02.880Z,102504.50
2022-09-21T06:10:35.557Z,102507.06
2022-09-21T06:13:03.461Z,102512.25
2022-09-21T06:15:31.255Z,102504.47
2022-09-21T06:17:59.278Z,102511.31
2022-09-21T06:20:27.132Z,102522.56
2022-09-21T06:23:01.807Z,102521.84
2022-09-21T06:25:29.632Z,102527.72
2022-09-21T06:27:57.447Z,102524.19
2022-09-21T06:30:25.463Z,102524.88
2022-09-21T06:32:53.308Z,102523.78
2022-09-21T06:35:21.122Z,102527.16
2022-09-21T06:37:51.978Z,102528.72
2022-09-21T06:40:21.252Z,102526.84
2022-09-21T06:42:49.136Z,102526.59
2022-09-21T06:45:19.722Z,102535.00
2022-09-21T06:47:48.254Z,102536.56
2022-09-21T06:50:16.512Z,102530.25
2022-09-21T06:52:47.059Z,102537.03
2022-09-21T06:55:15.985Z,102529.88
2022-09-21T06:57:47.928Z,102540.75
2022-09-21T07:00:16.374Z,102538.75
2022-09-21T07:02:45.599Z,102539.31
2022-09-21T07:05:14.377Z,102538.03
2022-09-21T07:07:42.194Z,102537.75
2022-09-21T07:10:15.835Z,102541.88
2022-09-21T07:12:48.483Z,102538.88
2022-09-21T07:15:16.453Z,102541.13
2022-09-21T07:17:51.570Z,102542.44
2022-09-21T07:20:23.923Z,102541.31
2022-09-21T07:22:51.752Z,102539.34
2022-09-21T07:25:21.931Z,102543.44
2022-09-21T07:27:53.691Z,102540.66
2022-09-21T07:30:21.489Z,102545.72
2022-09-21T07:32:49.272Z,102547.34
2022-09-21T07:35:17.274Z,102547.19
2022-09-21T07:37:45.075Z,102544.44
2022-09-21T07:40:12.998Z,102551.22
2022-09-21T07:42:40.832Z,102542.38
2022-09-21T07:45:11.794Z,102543.78
2022-09-21T07:47:39.607Z,102545.50
2022-09-21T07:50:08.313Z,102547.03
2022-09-21T07:52:36.219Z,102547.63
2022-09-21T07:55:04.179Z,102551.94
2022-09-21T07:57:49.120Z,102547.47
2022-09-21T08:00:18.655Z,102548.94
2022-09-21T08:02:47.828Z,102547.78
2022-09-21T08:05:16.288Z,102547.69
2022-09-21T08:07:44.155Z,102543.09
2022-09-21T08:10:11.991Z,102542.16
2022-09-21T08:12:39.895Z,102543.91
2022-09-21T08:15:20.356Z,102543.59
2022-09-21T08:17:58.768Z,102547.06
2022-09-21T08:20:26.385Z,102539.84
2022-09-21T08:22:59.291Z,102547.59
2022-09-21T08:25:27.339Z,102543.84
2022-09-21T08:28:03.202Z,102544.56
2022-09-21T08:30:34.158Z,102543.59
2022-09-21T08:33:07.029Z,102546.00
2022-09-21T08:35:34.897Z,102537.84
2022-09-21T08:38:02.963Z,102542.00
2022-09-21T08:40:31.179Z,102540.75
2022-09-21T08:43:05.231Z,102529.94
2022-09-21T08:45:36.353Z,102539.34
2022-09-21T08:48:11.295Z,102538.25
2022-09-21T08:50:45.435Z,102541.44
2022-09-21T08:53:16.009Z,102543.72
2022-09-21T08:55:43.819Z,102546.91
2022-09-21T08:58:23.243Z,102542.34
2022-09-21T09:01:06.888Z,102546.28
2022-09-21T09:03:54.908Z,102534.66
2022-09-21T09:06:32.266Z,102532.75
2022-09-21T09:09:14.387Z,102538.44
2022-09-21T09:12:07.378Z,102539.06
2022-09-21T09:15:00.875Z,102543.97
2022-09-21T09:17:40.605Z,102534.34
2022-09-21T09:20:14.190Z,102533.78
2022-09-21T09:22:46.967Z,102540.47
2022-09-21T09:25:20.757Z,102539.44
2022-09-21T09:27:52.576Z,102545.97
2022-09-21T09:30:23.202Z,102543.03
2022-09-21T09:32:57.154Z,102541.97
2022-09-21T09:35:33.236Z,102542.66
2022-09-21T09:38:15.634Z,102551.81
2022-09-21T09:41:01.467Z,102546.84
2022-09-21T09:43:46.609Z,102546.56
2022-09-21T09:46:29.586Z,102547.28
2022-09-21T09:49:23.371Z,102548.72
2022-09-21T09:51:52.766Z,102545.59
2022-09-21T09:54:25.579Z,102547.53
2022-09-21T09:56:55.175Z,102550.09
2022-09-21T09:59:30.606Z,102547.88
2022-09-21T10:02:04.275Z,102548.19
2022-09-21T10:04:34.766Z,102546.25
2022-09-21T10:07:03.806Z,102542.69
2022-09-21T10:09:34.318Z,102545.03
2022-09-21T10:12:09.541Z,102545.44
2022-09-21T10:14:38.178Z,102548.78
2022-09-21T10:17:08.650Z,102549.44
2022-09-21T10:19:38.167Z,102546.94
2022-09-21T10:22:07.471Z,102545.72
2022-09-21T10:24:38.984Z,102549.50
2022-09-21T10:27:13.551Z,102555.28
2022-09-21T10:29:43.636Z,102541.97
2022-09-21T10:32:26.482Z,102550.47
2022-09-21T10:35:18.197Z,102543.47
2022-09-21T10:37:53.624Z,102544.81
2022-09-21T10:40:30.800Z,102535.31
2022-09-21T10:43:01.362Z,102528.38
2022-09-21T10:45:34.812Z,102537.03
2022-09-21T10:48:09.857Z,102522.28
2022-09-21T10:50:39.340Z,102527.47
2022-09-21T10:53:24.263Z,102528.00
2022-09-21T10:56:15.059Z,102529.28
2022-09-21T10:59:21.618Z,102524.63
2022-09-21T11:01:51.091Z,102526.06
2022-09-21T11:04:27.812Z,102530.88
2022-09-21T11:06:59.741Z,102525.00
2022-09-21T11:09:33.470Z,102526.56
2022-09-21T11:12:08.283Z,102528.47
2022-09-21T11:14:52.303Z,102518.72
2022-09-21T11:17:31.687Z,102516.09
2022-09-21T11:20:11.394Z,102516.00
2022-09-21T11:22:45.065Z,102517.72
2022-09-21T11:25:28.617Z,102518.88
2022-09-21T11:28:03.505Z,102519.41
2022-09-21T11:30:55.644Z,102511.69
2022-09-21T11:33:39.211Z,102514.66
2022-09-21T11:36:14.723Z,102521.16
2022-09-21T11:38:54.540Z,102515.50
2022-09-21T11:41:41.259Z,102512.88
2022-09-21T11:44:24.110Z,102508.84
2022-09-21T11:47:00.568Z,102513.19
2022-09-21T11:49:49.287Z,102514.78
2022-09-21T11:52:33.014Z,102511.16
2022-09-21T11:55:26.581Z,102511.88
2022-09-21T11:58:09.742Z,102515.59
2022-09-21T12:00:50.047Z,102514.09
2022-09-21T12:03:50.782Z,102514.41
2022-09-21T12:06:29.326Z,102513.63
2022-09-21T12:09:20.145Z,102516.72
2022-09-21T12:11:57.602Z,102510.88
2022-09-21T12:14:33.494Z,102506.22
2022-09-21T12:17:09.199Z,102515.66
2022-09-21T12:19:51.401Z,102510.84
2022-09-21T12:22:23.278Z,102506.72
2022-09-21T12:24:55.462Z,102506.13
2022-09-21T12:27:28.763Z,102507.63
2022-09-21T12:30:03.257Z,102509.22
2022-09-21T12:32:47.386Z,102511.34
2022-09-21T12:35:21.398Z,102508.72
2022-09-21T12:37:53.406Z,102509.28
2022-09-21T12:40:27.990Z,102508.50
2022-09-21T12:43:02.914Z,102504.38
2022-09-21T12:45:35.131Z,102502.91
2022-09-21T12:48:08.636Z,102496.13
2022-09-21T12:50:43.621Z,102502.34
2022-09-21T12:53:17.020Z,102500.78
2022-09-21T12:55:56.902Z,102500.97
2022-09-21T12:58:35.243Z,102500.63
2022-09-21T13:01:12.055Z,102500.63
2022-09-21T13:03:46.662Z,102501.66
2022-09-21T13:06:44.693Z,102498.59
2022-09-21T13:09:15.815Z,102504.03
2022-09-21T13:11:54.503Z,102501.56
2022-09-21T13:14:24.313Z,102497.09
2022-09-21T13:16:58.645Z,102504.13
2022-09-21T13:19:29.181Z,102500.78
2022-09-21T13:22:19.040Z,102504.09
2022-09-21T13:25:03.337Z,102502.31
2022-09-21T13:28:01.394Z,102505.81
2022-09-21T13:30:38.192Z,102499.28
2022-09-21T13:33:29.721Z,102502.59
2022-09-21T13:36:26.606Z,102502.25
2022-09-21T13:39:19.832Z,102500.88
2022-09-21T13:42:04.001Z,102504.88
2022-09-21T13:44:42.144Z,102504.03
2022-09-21T13:47:11.724Z,102502.34
2022-09-21T13:49:50.893Z,102504.19
2022-09-21T13:52:41.606Z,102500.63
2022-09-21T13:55:28.517Z,102496.91
2022-09-21T13:57:59.072Z,102499.28
2022-09-21T14:00:35.890Z,102493.44
2022-09-21T14:03:08.039Z,102494.53
2022-09-21T14:05:41.117Z,102486.72
2022-09-21T14:08:23.196Z,102493.25
2022-09-21T14:10:55.896Z,102495.88
2022-09-21T14:13:33.031Z,102494.19
2022-09-21T14:16:48.112Z,102494.00
2022-09-21T14:20:07.229Z,102488.03
2022-09-21T14:22:43.542Z,102492.09
2022-09-21T14:25:53.264Z,102495.03
2022-09-21T14:28:38.635Z,102497.66
2022-09-21T14:31:18.702Z,102491.56
2022-09-21T14:33:51.386Z,102492.31
2022-09-21T14:36:29.023Z,102482.41
2022-09-21T14:39:01.323Z,102490.13
2022-09-21T14:41:38.934Z,102483.78
2022-09-21T14:44:19.780Z,102487.00
2022-09-21T14:47:21.919Z,102487.00
2022-09-21T14:50:07.545Z,102486.91
2022-09-21T14:52:49.293Z,102485.22
2022-09-21T14:55:18.849Z,102484.88
2022-09-21T14:58:14.343Z,102487.56
2022-09-21T15:00:45.796Z,102482.22
2022-09-21T15:03:44.605Z,102485.81
2022-09-21T15:06:38.845Z,102485.88
2022-09-21T15:09:56.366Z,102480.72
2022-09-21T15:12:30.195Z,102481.91
2022-09-21T15:15:04.994Z,102482.81
2022-09-21T15:17:34.386Z,102482.97
2022-09-21T15:20:17.138Z,102481.53
2022-09-21T15:22:45.313Z,102480.06
2022-09-21T15:25:14.891Z,102480.16
2022-09-21T15:27:46.752Z,102481.09
2022-09-21T15:30:22.487Z,102481.50
2022-09-21T15:32:55.098Z,102483.34
2022-09-21T15:35:24.970Z,102496.56
2022-09-21T15:37:53.782Z,102487.97
2022-09-21T15:40:23.991Z,102482.06
2022-09-21T15:43:19.010Z,102485.00
2022-09-21T15:45:54.718Z,102483.34
2022-09-21T15:48:24.700Z,102479.19
2022-09-21T15:51:00.207Z,102477.66
2022-09-21T15:53:34.382Z,102481.28
2022-09-21T15:56:02.701Z,102484.06
2022-09-21T15:58:35.786Z,102479.06
2022-09-21T16:01:05.739Z,102483.63
2022-09-21T16:03:35.064Z,102483.84
2022-09-21T16:06:24.681Z,102480.66
2022-09-21T16:08:52.974Z,102486.22
2022-09-21T16:11:33.539Z,102482.94
2022-09-21T16:14:23.532Z,102486.69
2022-09-21T16:17:22.769Z,102493.25
2022-09-21T16:20:26.061Z,102488.22
2022-09-21T16:23:06.354Z,102496.16
2022-09-21T16:25:37.686Z,102496.34
2022-09-21T16:28:09.576Z,102494.81
2022-09-21T16:30:44.175Z,102495.03
2022-09-21T16:33:36.415Z,102498.88
2022-09-21T16:36:07.214Z,102494.59
2022-09-21T16:38:35.039Z,102493.22
2022-09-21T16:41:03.423Z,102496.97
2022-09-21T16:43:31.222Z,102497.28
2022-09-21T16:45:59.283Z,102496.63
2022-09-21T16:48:27.075Z,102503.44
2022-09-21T16:50:54.894Z,102515.19
2022-09-21T16:53:27.182Z,102508.38
2022-09-21T16:55:55.326Z,102517.38
2022-09-21T16:58:23.671Z,102515.09
2022-09-21T17:00:56.131Z,102522.47
2022-09-21T17:03:24.200Z,102522.72
2022-09-21T17:05:55.303Z,102515.16
2022-09-21T17:08:24.127Z,102521.34
2022-09-21T17:10:53.389Z,102515.47
2022-09-21T17:13:21.199Z,102523.47
2022-09-21T17:15:49.838Z,102521.88
2022-09-21T17:18:17.705Z,102520.44
2022-09-21T17:20:46.274Z,102522.47
2022-09-21T17:23:14.097Z,102523.53
2022-09-21T17:25:42.020Z,102523.66
2022-09-21T17:28:17.270Z,102522.09
2022-09-21T17:30:46.493Z,102524.03
2022-09-21T17:33:14.294Z,102526.84
2022-09-21T17:35:42.859Z,102524.56
2022-09-21T17:38:14.398Z,102527.44
2022-09-21T17:40:43.648Z,102518.28
2022-09-21T17:43:30.282Z,102536.84
2022-09-21T17:46:06.297Z,102536.44
2022-09-21T17:48:34.763Z,102537.69
2022-09-21T17:51:03.335Z,102537.88
2022-09-21T17:53:37.333Z,102538.84
2022-09-21T17:56:25.598Z,102536.53
2022-09-21T17:59:01.548Z,102545.53
2022-09-21T18:01:33.881Z,102546.41
2022-09-21T18:04:02.286Z,102541.25
2022-09-21T18:06:31.210Z,102546.47
2022-09-21T18:08:59.704Z,102549.19
2022-09-21T18:11:56.678Z,102546.63
2022-09-21T18:14:35.787Z,102547.69
2022-09-21T18:17:21.795Z,102549.59
2022-09-21T18:20:03.892Z,102551.50
2022-09-21T18:22:39.895Z,102550.75
2022-09-21T18:25:15.617Z,102548.31
2022-09-21T18:27:44.626Z,102545.03
2022-09-21T18:30:14.711Z,102546.09
2022-09-21T18:32:57.161Z,102559.31
2022-09-21T18:35:40.201Z,102563.78
2022-09-21T18:38:21.825Z,102565.63
2022-09-21T18:41:04.250Z,102560.56
2022-09-21T18:43:46.140Z,102561.53
2022-09-21T18:46:20.792Z,102561.53
2022-09-21T18:49:00.106Z,102561.59
2022-09-21T18:51:35.423Z,102566.06
2022-09-21T18:54:03.617Z,102562.03
2022-09-21T18:56:37.151Z,102569.81
2022-09-21T18:59:07.286Z,102570.03
2022-09-21T19:01:37.175Z,102578.88
2022-09-21T19:04:05.863Z,102578.06
2022-09-21T19:06:45.347Z,102574.66
2022-09-21T19:09:42.160Z,102577.25
2022-09-21T19:12:21.712Z,102572.09
2022-09-21T19:15:00.133Z,102579.97
2022-09-21T19:17:56.367Z,102576.59
2022-09-21T19:20:35.743Z,102579.25
2022-09-21T19:23:14.702Z,102578.50
2022-09-21T19:25:49.780Z,102577.69
2022-09-21T19:28:40.227Z,102578.69
2022-09-21T19:31:12.010Z,102584.94
2022-09-21T19:33:56.943Z,102580.72
2022-09-21T19:36:25.150Z,102578.31
2022-09-21T19:38:53.747Z,102577.50
2022-09-21T19:41:36.188Z,102580.13
2022-09-21T19:44:17.187Z,102579.31
2022-09-21T19:47:00.350Z,102586.56
2022-09-21T19:49:38.006Z,102581.56
2022-09-21T19:52:06.766Z,102579.91
2022-09-21T19:54:52.435Z,102586.19
2022-09-21T19:57:39.065Z,102585.50
2022-09-21T20:00:09.858Z,102585.75
2022-09-21T20:02:42.887Z,102580.69
2022-09-21T20:05:20.950Z,102588.59
2022-09-21T20:07:55.530Z,102593.03
2022-09-21T20:10:46.536Z,102590.47
2022-09-21T20:13:22.802Z,102587.06
2022-09-21T20:15:56.958Z,102587.25
2022-09-21T20:18:36.148Z,102590.81
2022-09-21T20:21:09.262Z,102583.94
2022-09-21T20:23:37.582Z,102589.19
2022-09-21T20:26:14.413Z,102583.25
2022-09-21T20:28:43.251Z,102585.13
2022-09-21T20:31:11.124Z,102578.31
2022-09-21T20:33:38.947Z,102582.75
2022-09-21T20:36:10.090Z,102587.13
2022-09-21T20:38:38.007Z,102580.41
2022-09-21T20:41:10.776Z,102573.47
2022-09-21T20:43:38.627Z,102574.38
2022-09-21T20:46:06.937Z,102580.56
2022-09-21T20:48:34.767Z,102576.22
2022-09-21T20:51:03.169Z,102578.06
2022-09-21T20:53:32.386Z,102582.50
2022-09-21T20:56:02.015Z,102575.56
2022-09-21T20:58:30.182Z,102582.69
2022-09-21T21:01:04.414Z,102577.56
2022-09-21T21:03:32.255Z,102583.75
2022-09-21T21:06:09.602Z,102583.81
2022-09-21T21:08:42.065Z,102581.28
2022-09-21T21:11:10.792Z,102569.16
2022-09-21T21:13:39.018Z,102569.25
2022-09-21T21:16:11.744Z,102573.66
2022-09-21T21:18:41.252Z,102575.47
2022-09-21T21:21:09.370Z,102573.81
2022-09-21T21:23:57.725Z,102571.28
2022-09-21T21:26:50.387Z,102572.31
2022-09-21T21:29:14.761Z,102576.75
2022-09-21T21:31:42.726Z,102577.63
2022-09-21T21:34:10.877Z,102573.28
2022-09-21T21:36:38.681Z,102568.13
2022-09-21T21:39:06.772Z,102571.66
2022-09-21T21:41:36.020Z,102577.03
2022-09-21T21:44:03.938Z,102570.13
2022-09-21T21:46:31.809Z,102569.41
2022-09-21T21:49:00.281Z,102564.28
2022-09-21T21:51:28.198Z,102573.03
2022-09-21T21:53:56.062Z,102576.50
2022-09-21T21:56:24.059Z,102573.97
2022-09-21T21:58:55.206Z,102575.72
2022-09-21T22:01:26.454Z,102569.75
2022-09-21T22:03:55.875Z,102570.63
2022-09-21T22:06:24.171Z,102573.22
2022-09-21T22:08:52.854Z,102570.63
2022-09-21T22:11:21.778Z,102572.44
2022-09-21T22:13:50.493Z,102575.03
2022-09-21T22:16:22.108Z,102570.66
2022-09-21T22:18:50.872Z,102571.53
2022-09-21T22:21:22.157Z,102568.94
2022-09-21T22:23:53.742Z,102569.78
2022-09-21T22:26:25.426Z,102567.22
2022-09-21T22:28:58.588Z,102566.41
2022-09-21T22:31:32.811Z,102566.41
2022-09-21T22:34:01.080Z,102573.41
2022-09-21T22:36:30.246Z,102560.50
2022-09-21T22:38:58.307Z,102564.00
2022-09-21T22:41:28.873Z,102564.13
2022-09-21T22:43:58.054Z,102571.09
2022-09-21T22:46:28.583Z,102548.91
2022-09-21T22:48:56.574Z,102566.78
2022-09-21T22:51:24.891Z,102564.31
2022-09-21T22:53:53.727Z,102561.75
2022-09-21T22:56:23.181Z,102559.25
2022-09-21T22:58:55.822Z,102561.06
2022-09-21T23:01:25.996Z,102557.66
2022-09-21T23:04:00.118Z,102566.31
2022-09-21T23:06:30.170Z,102560.19
2022-09-21T23:08:59.121Z,102557.66
2022-09-21T23:11:29.900Z,102561.09
2022-09-21T23:13:58.662Z,102560.25
2022-09-21T23:16:28.770Z,102558.53
2022-09-21T23:18:58.927Z,102555.03
2022-09-21T23:21:28.426Z,102554.22
2022-09-21T23:23:57.466Z,102549.81
2022-09-21T23:26:26.171Z,102548.97
2022-09-21T23:28:56.179Z,102544.56
2022-09-21T23:31:26.724Z,102548.97
2022-09-21T23:33:57.077Z,102554.22
2022-09-21T23:36:26.832Z,102548.28
2022-09-21T23:38:55.167Z,102545.69
2022-09-21T23:41:24.494Z,102552.69
2022-09-21T23:43:52.857Z,102555.38
2022-09-21T23:46:23.036Z,102554.50
2022-09-21T23:48:50.832Z,102550.38
2022-09-21T23:51:19.478Z,102545.97
2022-09-21T23:53:48.807Z,102550.38
2022-09-21T23:56:19.469Z,102544.28
2022-09-21T23:58:48.142Z,102548.59
